Time;durP1;ratioP1;P1;durP2;ratioP2;P2;SDS_P1;SDS_P2;PMS_P1;PMS_P2;Temp;Humidity;BMP_temperature;BMP_pressure;BME280_temperature;BME280_humidity;BME280_pressure;Samples;Min_cycle;Max_cycle;Signal;HPM_P1;HPM_P2
2022/05/06 00:02:09;;;;;;;5.85;4.50;;;;;;;11.95;100.00;98966.25;5042028;28;20035;-64
2022/05/06 00:04:35;;;;;;;5.57;4.82;;;;;;;11.81;100.00;98963.91;5036763;28;20447;-63
2022/05/06 00:07:00;;;;;;;5.55;5.00;;;;;;;11.64;100.00;98950.50;5038565;28;20406;-63
2022/05/06 00:09:26;;;;;;;5.40;4.90;;;;;;;11.69;100.00;98958.97;5040224;28;20393;-64
2022/05/06 00:11:52;;;;;;;5.07;4.68;;;;;;;11.67;100.00;98954.75;5042804;28;20032;-63
2022/05/06 00:14:19;;;;;;;6.65;4.70;;;;;;;11.56;100.00;98951.50;5040380;28;20147;-63
2022/05/06 00:16:44;;;;;;;5.90;5.18;;;;;;;11.53;100.00;98961.84;5038202;28;20449;-63
2022/05/06 00:19:10;;;;;;;5.38;4.88;;;;;;;11.47;100.00;98967.94;5040738;28;20033;-63
2022/05/06 00:21:35;;;;;;;6.13;5.53;;;;;;;11.42;100.00;98959.44;5038659;28;20033;-63
2022/05/06 00:24:02;;;;;;;8.20;5.18;;;;;;;11.41;100.00;98960.34;5038068;28;20029;-64
2022/05/06 00:26:28;;;;;;;5.38;4.50;;;;;;;11.42;100.00;98957.75;5038571;28;20467;-63
2022/05/06 00:28:53;;;;;;;5.93;5.07;;;;;;;11.49;100.00;98966.19;5037279;28;20032;-62
2022/05/06 00:31:19;;;;;;;4.60;4.30;;;;;;;11.53;100.00;98970.41;5040333;28;20399;-63
2022/05/06 00:33:44;;;;;;;4.85;4.43;;;;;;;11.52;100.00;98968.69;5038710;28;20028;-62
2022/05/06 00:36:10;;;;;;;6.15;4.90;;;;;;;11.48;100.00;98956.78;5038462;28;20033;-62
2022/05/06 00:38:36;;;;;;;4.90;4.45;;;;;;;11.50;100.00;98967.88;5036951;28;20095;-62
2022/05/06 00:41:01;;;;;;;4.93;4.38;;;;;;;11.56;100.00;98961.78;5037363;28;20407;-62
2022/05/06 00:43:27;;;;;;;5.50;4.93;;;;;;;11.64;100.00;98959.94;5039001;28;20029;-62
2022/05/06 00:45:56;;;;;;;5.00;4.60;;;;;;;11.64;100.00;98953.06;5038823;28;20083;-62
2022/05/06 00:48:27;;;;;;;5.70;5.20;;;;;;;11.67;100.00;98965.03;5042096;28;20037;-63
2022/05/06 00:51:03;;;;;;;5.25;4.82;;;;;;;11.64;100.00;98967.63;5041237;28;20196;-63
2022/05/06 00:53:29;;;;;;;6.40;4.97;;;;;;;11.70;100.00;98976.09;5038287;28;20057;-62
2022/05/06 00:55:56;;;;;;;5.55;5.05;;;;;;;11.76;100.00;98972.56;5040167;28;20144;-62
2022/05/06 00:58:29;;;;;;;5.63;5.13;;;;;;;11.64;100.00;98971.06;5021526;28;20036;-62
2022/05/06 01:00:54;;;;;;;6.45;5.78;;;;;;;11.63;100.00;98982.19;5038510;28;20044;-63
2022/05/06 01:03:20;;;;;;;6.45;5.85;;;;;;;11.56;100.00;98975.47;5037024;28;20635;-63
2022/05/06 01:05:45;;;;;;;6.15;5.00;;;;;;;11.50;100.00;98975.56;5040036;28;20191;-63
2022/05/06 01:08:11;;;;;;;5.47;4.97;;;;;;;11.45;100.00;98973.09;5041013;28;20067;-63
2022/05/06 01:10:37;;;;;;;5.85;4.78;;;;;;;11.41;100.00;98971.44;5039019;28;20350;-63
2022/05/06 01:13:03;;;;;;;5.32;4.90;;;;;;;11.34;100.00;98974.13;5037348;28;20471;-63
2022/05/06 01:15:30;;;;;;;5.38;4.88;;;;;;;11.43;100.00;98974.00;5039513;28;20063;-63
2022/05/06 01:17:57;;;;;;;6.00;5.32;;;;;;;11.37;100.00;98982.63;5037401;28;20033;-63
2022/05/06 01:20:23;;;;;;;5.80;5.30;;;;;;;11.35;100.00;98976.69;5037825;28;20036;-63
2022/05/06 01:22:51;;;;;;;6.38;5.78;;;;;;;11.39;100.00;98975.75;5038789;28;20037;-63
2022/05/06 01:25:20;;;;;;;6.35;5.55;;;;;;;11.28;100.00;98975.09;5041508;28;20086;-63
2022/05/06 01:27:50;;;;;;;7.13;5.57;;;;;;;11.24;100.00;98972.63;5038449;28;20534;-63
2022/05/06 01:30:32;;;;;;;7.35;5.05;;;;;;;11.33;100.00;98972.47;5037189;28;20037;-63
2022/05/06 01:33:03;;;;;;;6.28;5.68;;;;;;;11.21;100.00;98980.34;5038205;28;20025;-64
2022/05/06 01:35:30;;;;;;;6.88;5.55;;;;;;;11.28;100.00;98971.69;5041450;28;20051;-63
2022/05/06 01:38:03;;;;;;;4.88;4.47;;;;;;;11.19;100.00;98972.69;5041099;28;20033;-63
2022/05/06 01:40:33;;;;;;;7.25;6.53;;;;;;;11.22;100.00;98971.78;5038809;28;20486;-63
2022/05/06 01:43:01;;;;;;;5.47;5.07;;;;;;;11.19;100.00;98964.13;5040078;28;20115;-63
2022/05/06 01:45:32;;;;;;;7.10;5.70;;;;;;;11.21;100.00;98973.50;5040672;28;20052;-62
2022/05/06 01:48:00;;;;;;;6.28;5.68;;;;;;;11.22;100.00;98971.78;5038110;28;20052;-64
2022/05/06 01:50:27;;;;;;;5.93;5.43;;;;;;;11.23;100.00;98965.78;5042645;28;20403;-64
2022/05/06 01:52:55;;;;;;;7.00;6.15;;;;;;;11.24;100.00;98976.03;5043320;28;20033;-63
2022/05/06 01:55:22;;;;;;;5.68;5.10;;;;;;;11.21;100.00;98965.78;5045181;28;20033;-64
2022/05/06 01:57:47;;;;;;;5.78;5.22;;;;;;;11.22;100.00;98967.50;5042347;28;20386;-63
2022/05/06 02:00:13;;;;;;;6.60;5.97;;;;;;;11.28;100.00;98969.97;5041351;28;20037;-63
2022/05/06 02:02:39;;;;;;;5.75;5.25;;;;;;;11.32;100.00;98981.03;5041527;28;20025;-62
2022/05/06 02:05:17;;;;;;;6.68;5.93;;;;;;;11.30;100.00;98968.22;5040043;28;20153;-65
2022/05/06 02:07:44;;;;;;;6.05;5.55;;;;;;;11.30;100.00;98970.78;5040807;28;20037;-62
2022/05/06 02:10:10;;;;;;;5.85;5.35;;;;;;;11.29;100.00;98973.38;5041015;28;20565;-62
2022/05/06 02:12:36;;;;;;;7.70;5.68;;;;;;;11.31;100.00;98976.75;5041864;28;20584;-63
2022/05/06 02:15:02;;;;;;;8.65;6.22;;;;;;;11.29;100.00;98975.94;5042186;28;20068;-63
2022/05/06 02:17:27;;;;;;;8.18;5.40;;;;;;;11.39;100.00;98978.34;5013273;28;20045;-63
2022/05/06 02:19:53;;;;;;;7.03;5.55;;;;;;;11.38;100.00;98983.47;5041365;28;20032;-63
2022/05/06 02:22:18;;;;;;;5.80;5.28;;;;;;;11.34;100.00;98971.56;5043790;28;20021;-63
2022/05/06 02:24:43;;;;;;;6.10;5.50;;;;;;;11.29;100.00;98978.50;5043311;28;20035;-62
2022/05/06 02:27:12;;;;;;;6.63;5.43;;;;;;;11.28;100.00;98972.53;5040509;28;20059;-61
2022/05/06 02:29:38;;;;;;;6.40;5.38;;;;;;;11.20;100.00;98978.66;5042133;28;20029;-61
2022/05/06 02:34:48;;;;;;;4.72;4.32;;;;;;;11.06;100.00;98981.44;5042506;28;20032;-60
2022/05/06 02:37:13;;;;;;;5.97;5.45;;;;;;;11.03;100.00;98989.19;5040575;28;20029;-61
2022/05/06 02:39:39;;;;;;;7.38;6.35;;;;;;;11.00;100.00;98987.50;5042833;28;20039;-62
2022/05/06 02:42:05;;;;;;;6.40;5.30;;;;;;;10.95;100.00;98980.75;5043665;28;20025;-61
2022/05/06 02:44:31;;;;;;;6.18;5.65;;;;;;;10.93;100.00;98975.66;5041371;28;20041;-60
2022/05/06 02:46:56;;;;;;;5.90;5.40;;;;;;;10.90;100.00;98974.84;5039929;28;20055;-59
2022/05/06 02:49:22;;;;;;;5.90;5.30;;;;;;;10.88;100.00;98974.00;5039597;28;20037;-61
2022/05/06 02:51:49;;;;;;;5.95;5.35;;;;;;;10.84;100.00;98978.34;5042146;28;20056;-60
2022/05/06 02:54:15;;;;;;;6.25;5.65;;;;;;;10.85;100.00;98980.06;5041114;28;20271;-59
2022/05/06 02:56:41;;;;;;;7.22;5.57;;;;;;;10.85;100.00;98979.19;5040201;28;20419;-63
2022/05/06 02:59:06;;;;;;;5.78;5.28;;;;;;;10.85;100.00;98974.91;5039743;28;20468;-63
2022/05/06 03:01:32;;;;;;;5.78;5.28;;;;;;;10.84;100.00;98974.94;5038141;28;20037;-63
2022/05/06 03:03:57;;;;;;;6.90;5.80;;;;;;;10.87;100.00;98970.59;5039344;28;20566;-63
2022/05/06 03:06:22;;;;;;;7.18;6.28;;;;;;;10.88;100.00;98980.00;5040699;28;20047;-64
2022/05/06 03:08:48;;;;;;;8.27;6.00;;;;;;;10.93;100.00;98975.66;5043704;28;20029;-63
2022/05/06 03:11:13;;;;;;;8.93;6.75;;;;;;;10.95;100.00;98975.59;5043149;28;20509;-64
2022/05/06 03:13:39;;;;;;;6.22;5.63;;;;;;;10.95;100.00;98979.03;5040143;28;20501;-62
2022/05/06 03:16:04;;;;;;;6.72;5.30;;;;;;;10.91;100.00;98973.97;5040520;28;20102;-62
2022/05/06 03:18:30;;;;;;;6.13;5.53;;;;;;;10.90;100.00;98980.84;5043943;28;20562;-62
2022/05/06 03:20:55;;;;;;;7.00;5.68;;;;;;;10.94;100.00;98986.75;5042980;28;20037;-61
2022/05/06 03:23:20;;;;;;;7.13;6.43;;;;;;;10.90;100.00;98988.53;5039502;28;20033;-63
2022/05/06 03:25:46;;;;;;;7.20;6.30;;;;;;;10.89;100.00;98986.81;5041254;28;20511;-60
2022/05/06 03:28:11;;;;;;;6.28;5.78;;;;;;;10.87;100.00;98985.13;5043308;28;20554;-63
2022/05/06 03:30:44;;;;;;;7.53;6.78;;;;;;;10.91;100.00;98986.78;5042115;28;20044;-63
2022/05/06 03:33:12;;;;;;;6.53;5.57;;;;;;;10.92;100.00;98993.63;5039077;28;20020;-62
2022/05/06 03:35:38;;;;;;;6.57;5.85;;;;;;;10.92;100.00;98985.94;5039965;28;20032;-63
2022/05/06 03:38:05;;;;;;;6.57;5.97;;;;;;;10.91;100.00;98991.91;5039946;28;20134;-61
2022/05/06 03:40:32;;;;;;;8.95;6.72;;;;;;;10.89;100.00;98988.53;5038339;28;20147;-63
2022/05/06 03:42:58;;;;;;;7.00;6.40;;;;;;;10.90;100.00;98990.25;5037072;28;20467;-61
2022/05/06 03:45:23;;;;;;;7.00;5.75;;;;;;;11.00;100.00;98992.63;5040924;28;20071;-63
2022/05/06 03:47:48;;;;;;;9.40;6.72;;;;;;;11.06;100.00;98993.41;5042183;28;20032;-63
2022/05/06 03:52:58;;;;;;;5.95;5.35;;;;;;;11.04;100.00;98990.03;5039109;28;20379;-63
2022/05/06 03:55:24;;;;;;;9.25;6.35;;;;;;;11.09;100.00;98996.78;5042555;28;20037;-63
2022/05/06 03:57:50;;;;;;;7.85;6.25;;;;;;;11.10;100.00;98995.06;5042810;28;20475;-63
2022/05/06 04:00:16;;;;;;;14.50;6.93;;;;;;;11.04;100.00;99002.84;5039962;28;20298;-63
2022/05/06 04:02:42;;;;;;;6.68;5.97;;;;;;;11.01;100.00;98998.63;5038824;28;20044;-64
2022/05/06 04:05:08;;;;;;;8.82;6.60;;;;;;;11.02;100.00;99002.88;5041966;28;20122;-64
2022/05/06 04:07:34;;;;;;;7.38;6.40;;;;;;;10.97;100.00;99008.09;5042882;28;20078;-63
2022/05/06 04:09:59;;;;;;;7.43;6.63;;;;;;;10.93;100.00;99015.84;5039417;28;20542;-63
2022/05/06 04:12:25;;;;;;;7.10;6.30;;;;;;;10.90;100.00;99019.31;5038385;28;20029;-63
2022/05/06 04:14:51;;;;;;;8.95;7.00;;;;;;;10.91;100.00;99012.44;5042746;28;20483;-63
2022/05/06 04:17:17;;;;;;;7.32;6.15;;;;;;;10.94;100.00;99018.41;5042265;28;20377;-63
2022/05/06 04:23:29;;;;;;;8.40;6.43;;;;;;;10.85;100.00;99018.53;5038575;28;20040;-63
2022/05/06 04:25:19;;;;;;;10.07;6.97;;;;;;;10.93;100.00;99029.53;5042883;28;19924;-62
2022/05/06 04:27:45;;;;;;;7.47;6.78;;;;;;;11.05;100.00;99030.22;5040457;28;20033;-62
2022/05/06 04:30:11;;;;;;;7.95;7.15;;;;;;;10.99;100.00;99026.84;5038759;28;20043;-63
2022/05/06 04:32:38;;;;;;;9.50;7.10;;;;;;;11.00;100.00;99028.56;5039274;28;20699;-62
2022/05/06 04:35:05;;;;;;;12.43;6.93;;;;;;;11.04;100.00;99019.09;5040847;28;20037;-63
2022/05/06 04:37:32;;;;;;;9.20;7.47;;;;;;;11.06;100.00;99030.19;5039020;28;20033;-63
2022/05/06 04:39:58;;;;;;;7.65;6.90;;;;;;;11.08;100.00;99035.28;5021062;28;20037;-63
2022/05/06 04:42:23;;;;;;;7.57;6.80;;;;;;;11.11;100.00;99037.81;5042001;28;20111;-63
2022/05/06 04:44:49;;;;;;;7.03;6.32;;;;;;;11.10;100.00;99034.41;5024363;28;20037;-64
2022/05/06 04:47:14;;;;;;;6.47;5.88;;;;;;;11.16;100.00;99046.31;5037907;28;20414;-63
2022/05/06 04:49:39;;;;;;;8.35;7.20;;;;;;;11.21;100.00;99035.09;5038719;28;20045;-63
2022/05/06 04:52:05;;;;;;;9.68;6.43;;;;;;;11.21;100.00;99040.22;5039140;28;20033;-64
2022/05/06 04:54:31;;;;;;;11.13;6.18;;;;;;;11.23;100.00;99030.78;5040679;28;20074;-62
2022/05/06 04:56:57;;;;;;;8.13;6.40;;;;;;;11.39;100.00;99039.94;5039130;28;20029;-63
2022/05/06 04:59:22;;;;;;;7.95;6.88;;;;;;;11.46;100.00;99043.25;5040140;28;20033;-62
2022/05/06 05:01:48;;;;;;;6.60;6.00;;;;;;;11.53;100.00;99046.59;5042039;28;20029;-61
2022/05/06 05:04:14;;;;;;;7.72;6.47;;;;;;;11.59;100.00;99046.47;5040839;28;20025;-66
2022/05/06 05:06:39;;;;;;;7.65;6.75;;;;;;;11.65;100.00;99039.53;5037908;28;20593;-61
2022/05/06 05:09:05;;;;;;;6.50;5.78;;;;;;;11.69;100.00;99041.16;5040382;28;20069;-55
2022/05/06 05:11:33;;;;;;;6.80;6.20;;;;;;;11.78;100.00;99046.19;5042656;28;20427;-61
2022/05/06 05:14:00;;;;;;;8.70;6.43;;;;;;;11.83;100.00;99043.53;5040408;28;20037;-61
2022/05/06 05:16:26;;;;;;;7.25;5.93;;;;;;;11.93;100.00;99054.47;5038118;28;20500;-61
2022/05/06 05:18:51;;;;;;;7.32;6.45;;;;;;;11.96;100.00;99046.75;5040248;28;20107;-61
2022/05/06 05:21:18;;;;;;;6.72;5.68;;;;;;;12.04;100.00;99056.00;5041566;28;20543;-62
2022/05/06 05:23:45;;;;;;;7.32;6.63;;;;;;;12.07;100.00;99048.22;5041048;28;20033;-62
2022/05/06 05:26:10;;;;;;;6.45;5.60;;;;;;;12.12;100.00;99043.84;5042375;28;20081;-61
2022/05/06 05:28:36;;;;;;;6.07;5.43;;;;;;;12.24;100.00;99053.91;5045319;28;20024;-61
2022/05/06 05:31:01;;;;;;;7.13;6.05;;;;;;;12.28;100.00;99052.13;5045778;28;20036;-62
2022/05/06 05:33:26;;;;;;;6.75;6.13;;;;;;;12.30;100.00;99047.81;5043496;28;20051;-61
2022/05/06 05:35:52;;;;;;;6.97;6.07;;;;;;;12.38;100.00;99057.94;5041673;28;20033;-62
2022/05/06 05:38:17;;;;;;;5.93;5.40;;;;;;;12.48;100.00;99055.16;5045674;28;20044;-62
2022/05/06 05:40:43;;;;;;;7.40;5.97;;;;;;;12.54;100.00;99047.31;5045611;28;20032;-62
2022/05/06 05:48:19;;;;;;;7.38;5.88;;;;;;;12.56;100.00;99049.88;5042268;28;20048;-62
2022/05/06 05:48:42;;;;;;;7.20;6.03;;;;;;;12.64;100.00;99053.13;5002402;28;20125;-62
2022/05/06 05:51:09;;;;;;;6.22;5.63;;;;;;;12.73;100.00;99056.34;5000579;28;20042;-62
2022/05/06 05:53:34;;;;;;;6.47;5.57;;;;;;;12.85;100.00;99050.13;4998342;28;20080;-62
2022/05/06 05:56:00;;;;;;;7.25;6.55;;;;;;;12.94;100.00;99054.22;4999922;28;20110;-61
2022/05/06 05:58:26;;;;;;;6.70;6.15;;;;;;;12.95;100.00;99056.72;5001754;28;20037;-62
2022/05/06 06:00:52;;;;;;;7.38;6.68;;;;;;;13.10;100.00;99055.56;5000251;28;20050;-62
2022/05/06 06:03:18;;;;;;;7.00;6.40;;;;;;;13.17;100.00;99057.16;4997896;28;20124;-61
2022/05/06 06:05:44;;;;;;;7.68;6.13;;;;;;;13.25;100.00;99062.97;5000079;28;20508;-62
2022/05/06 06:08:09;;;;;;;7.55;6.72;;;;;;;13.17;100.00;99059.72;5002116;28;20428;-61
2022/05/06 06:10:35;;;;;;;6.60;6.00;;;;;;;13.39;100.00;99071.22;4999547;28;20037;-62
2022/05/06 06:13:04;;;;;;;7.35;6.72;;;;;;;13.48;100.00;99071.03;4997538;28;20046;-61
2022/05/06 06:15:29;;;;;;;7.35;6.65;;;;;;;13.50;100.00;99078.69;5000722;28;20058;-62
2022/05/06 06:17:55;;;;;;;7.10;6.35;;;;;;;13.63;100.00;99068.06;5000998;28;20514;-62
2022/05/06 06:20:21;;;;;;;6.93;6.32;;;;;;;13.70;100.00;99068.78;4997572;28;20042;-61
2022/05/06 06:22:47;;;;;;;9.82;5.55;;;;;;;13.76;100.00;99083.22;4998070;28;20482;-62
2022/05/06 06:25:13;;;;;;;7.20;6.32;;;;;;;13.84;100.00;99086.44;5002248;28;20037;-60
2022/05/06 06:27:38;;;;;;;6.45;5.85;;;;;;;13.97;100.00;99088.69;5004340;28;20482;-61
2022/05/06 06:30:04;;;;;;;6.95;6.13;;;;;;;14.06;100.00;99088.47;5001678;28;20021;-61
2022/05/06 06:32:30;;;;;;;7.32;6.22;;;;;;;14.16;100.00;99091.66;5000713;28;20026;-62
2022/05/06 06:34:55;;;;;;;8.05;6.22;;;;;;;14.23;100.00;99089.75;5003931;28;20030;-62
2022/05/06 06:37:21;;;;;;;7.70;6.90;;;;;;;14.07;100.00;99084.16;5004156;28;20499;-63
2022/05/06 06:39:47;;;;;;;10.02;6.57;;;;;;;14.09;100.00;99087.53;5000979;28;20120;-62
2022/05/06 06:42:12;;;;;;;9.77;6.40;;;;;;;14.06;100.00;99082.44;5001569;28;20044;-62
2022/05/06 06:44:38;;;;;;;13.63;9.55;;;;;;;14.07;100.00;99076.41;5004742;28;20042;-63
2022/05/06 06:47:13;;;;;;;8.10;7.28;;;;;;;14.18;100.00;99087.28;5003507;28;20121;-62
2022/05/06 06:49:39;;;;;;;10.82;8.73;;;;;;;14.26;100.00;99076.78;5000703;28;20491;-63
2022/05/06 06:52:04;;;;;;;12.57;7.78;;;;;;;14.28;100.00;99075.84;5001168;28;20038;-63
2022/05/06 06:54:30;;;;;;;9.43;8.52;;;;;;;14.34;100.00;99082.59;5004134;28;20037;-62
2022/05/06 06:56:55;;;;;;;10.68;8.63;;;;;;;14.33;100.00;99086.91;5002422;28;20554;-63
2022/05/06 06:59:21;;;;;;;8.80;7.90;;;;;;;14.34;100.00;99086.00;5000680;28;20489;-62
2022/05/06 07:01:46;;;;;;;11.18;8.98;;;;;;;14.39;100.00;99084.16;5002887;28;20041;-61
2022/05/06 07:04:13;;;;;;;9.68;8.68;;;;;;;14.59;100.00;99086.22;5003772;28;20584;-63
2022/05/06 07:12:06;;;;;;;9.43;7.85;;;;;;;14.71;100.00;99078.13;5004145;28;20408;-62
2022/05/06 07:14:33;;;;;;;11.00;9.25;;;;;;;14.73;100.00;99070.31;5003519;28;20022;-63
2022/05/06 07:16:58;;;;;;;14.40;11.68;;;;;;;14.45;100.00;99078.00;5006692;28;20053;-62
2022/05/06 07:19:24;;;;;;;11.50;9.80;;;;;;;14.62;100.00;99079.25;5020290;28;20106;-61
2022/05/06 07:21:51;;;;;;;10.68;9.55;;;;;;;14.52;100.00;99074.38;5019894;28;20037;-63
2022/05/06 07:24:17;;;;;;;10.13;9.13;;;;;;;14.61;100.00;99081.84;5023092;28;20130;-62
2022/05/06 07:26:43;;;;;;;11.40;9.35;;;;;;;14.74;100.00;99084.94;5018463;28;20376;-62
2022/05/06 07:29:08;;;;;;;12.18;9.50;;;;;;;14.57;100.00;99085.41;5020923;28;20095;-63
2022/05/06 07:31:34;;;;;;;11.85;10.65;;;;;;;14.63;100.00;99085.25;5023061;28;20029;-62
2022/05/06 07:33:59;;;;;;;10.23;9.23;;;;;;;14.81;100.00;99084.69;5022719;28;20029;-62
2022/05/06 07:36:26;;;;;;;14.02;9.98;;;;;;;14.80;100.00;99084.78;5018899;28;20396;-62
2022/05/06 07:38:51;;;;;;;17.08;14.10;;;;;;;14.98;100.00;99082.47;5019952;28;20049;-61
2022/05/06 07:41:17;;;;;;;24.27;21.98;;;;;;;15.05;100.00;99089.19;5019455;28;20164;-61
2022/05/06 07:43:43;;;;;;;12.45;10.65;;;;;;;15.19;100.00;99085.34;5018601;28;20032;-62
2022/05/06 07:46:11;;;;;;;13.45;10.27;;;;;;;15.26;100.00;99090.25;5018640;28;20518;-61
2022/05/06 07:48:37;;;;;;;12.70;10.38;;;;;;;15.27;100.00;99089.38;5021104;28;20111;-62
2022/05/06 07:51:04;;;;;;;9.95;8.95;;;;;;;15.51;100.00;99093.81;5021566;28;20037;-61
2022/05/06 07:53:30;;;;;;;12.55;10.02;;;;;;;15.35;100.00;99089.13;5020621;28;20117;-62
2022/05/06 07:55:55;;;;;;;13.15;11.35;;;;;;;15.04;100.00;99078.88;5019071;28;20090;-62
2022/05/06 07:58:21;;;;;;;12.60;10.68;;;;;;;14.83;100.00;99066.59;5021130;28;20037;-62
2022/05/06 08:00:46;;;;;;;15.10;11.27;;;;;;;14.88;100.00;99070.75;5023375;28;20039;-62
2022/05/06 08:05:59;;;;;;;13.13;11.80;;;;;;;14.96;100.00;99071.38;5019235;28;20048;-61
2022/05/06 08:08:26;;;;;;;13.85;11.80;;;;;;;15.09;100.00;99066.69;5023276;28;20033;-62
2022/05/06 08:10:53;;;;;;;12.25;10.98;;;;;;;15.22;100.00;99060.25;5022768;28;20041;-61
2022/05/06 08:13:19;;;;;;;13.05;11.10;;;;;;;15.27;100.00;99068.72;5019154;28;20061;-61
2022/05/06 08:15:46;;;;;;;11.77;10.55;;;;;;;15.26;100.00;99092.00;5026824;28;20579;-61
2022/05/06 08:18:11;;;;;;;15.90;12.27;;;;;;;15.47;100.00;99106.84;5042007;28;20049;-62
2022/05/06 08:20:39;;;;;;;13.65;12.25;;;;;;;15.58;100.00;99094.44;5041096;28;20041;-62
2022/05/06 08:23:04;;;;;;;11.88;10.43;;;;;;;15.73;100.00;99104.31;5038895;28;20505;-62
2022/05/06 08:25:30;;;;;;;12.52;10.38;;;;;;;15.79;100.00;99098.94;5039161;28;20495;-62
2022/05/06 08:27:55;;;;;;;12.98;10.55;;;;;;;15.90;100.00;99104.63;5041929;28;20021;-62
2022/05/06 08:30:20;;;;;;;12.27;11.07;;;;;;;16.06;100.00;99109.28;5041620;28;20029;-62
2022/05/06 08:32:46;;;;;;;13.02;11.68;;;;;;;16.09;100.00;99103.97;5038173;28;20520;-62
2022/05/06 08:35:12;;;;;;;13.65;11.57;;;;;;;16.15;100.00;99101.22;5040618;28;20025;-62
2022/05/06 08:37:46;;;;;;;13.00;11.70;;;;;;;16.34;100.00;99090.16;5042522;28;20566;-62
2022/05/06 08:40:23;;;;;;;13.82;10.93;;;;;;;16.60;100.00;99098.78;5041281;28;20686;-62
2022/05/06 08:42:50;;;;;;;18.42;16.45;;;;;;;16.63;100.00;99106.47;5038212;28;20048;-63
2022/05/06 08:50:52;;;;;;;;;;;;;;;17.04;100.00;99108.38;5039298;28;20573;-64
2022/05/06 08:53:42;;;;;;;13.68;11.20;;;;;;;17.05;100.00;99109.22;5038511;28;19913;-62
2022/05/06 08:56:08;;;;;;;12.35;10.85;;;;;;;17.07;100.00;99110.00;5038535;28;20325;-62
2022/05/06 08:58:35;;;;;;;15.93;12.52;;;;;;;16.96;100.00;99112.16;5038439;28;20402;-62
2022/05/06 09:01:07;;;;;;;11.60;10.40;;;;;;;17.28;100.00;99115.22;5041054;28;20047;-61
2022/05/06 09:03:33;;;;;;;10.73;9.25;;;;;;;17.36;100.00;99102.78;5042845;28;20024;-63
2022/05/06 09:05:59;;;;;;;10.55;9.45;;;;;;;17.60;100.00;99113.16;5044522;28;20965;-63
2022/05/06 09:08:55;;;;;;;12.13;10.82;;;;;;;17.29;100.00;99116.91;5041197;28;20030;-63
2022/05/06 09:14:07;;;;;;;12.57;11.38;;;;;;;17.50;100.00;99116.97;5041218;28;20040;-63
2022/05/06 09:16:43;;;;;;;12.05;10.95;;;;;;;17.48;100.00;99121.38;5043627;28;20577;-62
2022/05/06 09:19:21;;;;;;;11.95;10.70;;;;;;;17.80;100.00;99114.03;5041267;28;20029;-63
2022/05/06 09:22:11;;;;;;;13.05;10.80;;;;;;;18.08;100.00;99115.50;5040314;28;20387;-63
2022/05/06 09:24:40;;;;;;;13.32;12.10;;;;;;;17.91;100.00;99121.38;5040898;28;20032;-62
2022/05/06 09:27:19;;;;;;;15.05;12.23;;;;;;;18.11;100.00;99111.03;5041509;28;20198;-63
2022/05/06 09:29:47;;;;;;;14.07;12.70;;;;;;;18.16;100.00;99116.84;5040991;28;20106;-62
2022/05/06 09:32:30;;;;;;;16.15;11.85;;;;;;;18.45;100.00;99115.66;5043078;28;20380;-65
2022/05/06 09:35:15;;;;;;;13.68;12.27;;;;;;;18.26;100.00;99122.50;5043562;28;20049;-63
2022/05/06 09:37:48;;;;;;;13.50;11.32;;;;;;;18.45;100.00;99127.78;5040293;28;20044;-62
2022/05/06 09:40:31;;;;;;;12.32;11.13;;;;;;;18.69;100.00;99113.75;5040351;28;20036;-63
2022/05/06 09:43:00;;;;;;;12.95;11.65;;;;;;;19.02;100.00;99111.41;5041278;28;20033;-63
2022/05/06 09:45:30;;;;;;;12.00;10.60;;;;;;;18.88;100.00;99109.44;5042613;28;20041;-62
2022/05/06 09:47:58;;;;;;;11.13;10.02;;;;;;;18.90;100.00;99109.34;5040822;28;20479;-62
2022/05/06 09:50:44;;;;;;;11.57;10.48;;;;;;;18.90;100.00;99110.19;5039859;28;20029;-60
2022/05/06 09:53:14;;;;;;;11.52;10.43;;;;;;;18.52;100.00;99106.69;5040332;28;20796;-64
2022/05/06 09:55:45;;;;;;;15.80;11.15;;;;;;;18.32;100.00;99106.69;5017889;28;20833;-64
2022/05/06 09:58:11;;;;;;;13.13;11.85;;;;;;;18.43;100.00;99111.41;5041052;28;20579;-64
2022/05/06 10:00:40;;;;;;;12.68;11.40;;;;;;;18.70;100.00;99121.50;5040530;28;20493;-62
2022/05/06 10:03:07;;;;;;;13.80;11.00;;;;;;;18.83;100.00;99115.75;5043519;28;20052;-62
2022/05/06 10:05:34;;;;;;;12.20;11.05;;;;;;;18.82;100.00;99114.06;5041486;28;20395;-63
2022/05/06 10:08:05;;;;;;;13.25;11.90;;;;;;;18.67;100.00;99107.81;5041508;28;20033;-63
2022/05/06 10:10:35;;;;;;;13.75;11.93;;;;;;;18.52;100.00;99111.91;5044393;28;20040;-63
2022/05/06 10:13:15;;;;;;;15.57;12.50;;;;;;;18.21;100.00;99119.25;5041530;28;20037;-63
2022/05/06 10:15:41;;;;;;;13.02;11.50;;;;;;;17.99;100.00;99116.72;5041420;28;20843;-63
2022/05/06 10:18:07;;;;;;;16.95;12.75;;;;;;;17.95;100.00;99115.16;5042234;28;20045;-64
2022/05/06 10:20:36;;;;;;;17.25;12.75;;;;;;;18.32;100.00;99111.88;5027454;28;20387;-63
2022/05/06 10:23:45;;;;;;;15.70;13.85;;;;;;;18.21;100.00;99120.09;5042130;28;20055;-63
2022/05/06 10:26:32;;;;;;;15.60;13.25;;;;;;;18.46;100.00;99127.69;5041390;28;20061;-64
2022/05/06 10:34:29;;;;;;;18.92;15.02;;;;;;;18.50;100.00;99136.22;5041291;28;20040;-64
2022/05/06 10:36:56;;;;;;;17.08;14.02;;;;;;;18.37;100.00;99135.06;5042322;28;20037;-64
2022/05/06 10:39:39;;;;;;;16.60;14.90;;;;;;;17.91;100.00;99136.13;5043972;28;20048;-64
2022/05/06 10:42:07;;;;;;;16.20;13.80;;;;;;;18.35;100.00;99129.91;5019191;28;20044;-64
2022/05/06 10:44:37;;;;;;;15.82;12.55;;;;;;;18.59;100.00;99131.50;5040003;28;20036;-64
2022/05/06 10:47:11;;;;;;;15.05;13.45;;;;;;;18.65;100.00;99120.00;5043616;28;20131;-63
2022/05/06 10:49:40;;;;;;;14.57;12.70;;;;;;;18.66;100.00;99126.88;5042312;28;20079;-64
2022/05/06 10:52:20;;;;;;;15.73;14.00;;;;;;;18.55;100.00;99126.50;5038969;28;20048;-63
2022/05/06 10:54:49;;;;;;;16.77;13.50;;;;;;;18.56;100.00;99123.84;5037899;28;20029;-65
2022/05/06 10:57:17;;;;;;;16.02;14.43;;;;;;;18.79;100.00;99125.44;5038580;28;20029;-65
2022/05/06 10:59:48;;;;;;;18.35;13.00;;;;;;;18.78;100.00;99131.53;5042335;28;20032;-64
2022/05/06 11:02:14;;;;;;;16.52;11.85;;;;;;;18.79;100.00;99127.19;5038781;28;20037;-66
2022/05/06 11:04:43;;;;;;;15.35;12.40;;;;;;;18.85;100.00;99132.09;5038893;28;20112;-64
2022/05/06 11:07:17;;;;;;;14.98;12.38;;;;;;;18.85;100.00;99122.56;5039860;28;20021;-64
2022/05/06 11:09:48;;;;;;;18.67;12.95;;;;;;;18.92;100.00;99126.59;5040113;28;20452;-64
2022/05/06 11:12:34;;;;;;;18.35;13.02;;;;;;;18.81;100.00;99126.19;5040366;28;20131;-64
2022/05/06 11:15:10;;;;;;;12.95;11.55;;;;;;;19.00;100.00;99128.84;5039638;28;20040;-63
2022/05/06 11:17:37;;;;;;;12.75;11.45;;;;;;;19.04;100.00;99131.22;5039335;28;20047;-64
2022/05/06 11:20:13;;;;;;;13.93;12.52;;;;;;;19.14;100.00;99124.66;5039703;28;21012;-65
2022/05/06 11:22:49;;;;;;;13.32;11.93;;;;;;;19.01;100.00;99126.13;5039201;28;20437;-64
2022/05/06 11:25:15;;;;;;;19.60;14.45;;;;;;;19.14;100.00;99123.81;5043489;28;20116;-63
2022/05/06 11:27:40;;;;;;;19.63;13.48;;;;;;;19.26;100.00;99122.44;5042454;28;20379;-64
2022/05/06 11:30:08;;;;;;;14.13;12.52;;;;;;;19.23;100.00;99122.56;5038756;28;20054;-63
2022/05/06 11:32:33;;;;;;;16.92;12.52;;;;;;;19.38;100.00;99127.91;5039151;28;20052;-65
2022/05/06 11:35:15;;;;;;;18.98;13.70;;;;;;;19.41;100.00;99132.13;5039037;28;20112;-64
2022/05/06 11:37:41;;;;;;;14.95;12.63;;;;;;;19.76;100.00;99122.69;5042291;28;20024;-63
2022/05/06 11:40:32;;;;;;;14.07;12.27;;;;;;;19.72;100.00;99132.41;5039212;28;20064;-63
2022/05/06 11:43:20;;;;;;;12.40;11.10;;;;;;;19.70;100.00;99136.81;5040377;28;20151;-62
2022/05/06 11:48:42;;;;;;;12.40;11.15;;;;;;;19.35;100.00;99133.25;5037071;28;20094;-62
2022/05/06 11:51:10;;;;;;;16.52;13.63;;;;;;;19.14;100.00;99134.22;5037355;28;20033;-63
2022/05/06 11:53:39;;;;;;;14.52;12.90;;;;;;;19.14;100.00;99140.28;5037746;28;20199;-66
2022/05/06 11:56:05;;;;;;;14.45;12.95;;;;;;;19.16;100.00;99140.22;5040738;28;20082;-66
2022/05/06 11:58:33;;;;;;;14.80;12.25;;;;;;;19.21;100.00;99140.00;5037542;28;20387;-68
2022/05/06 12:00:59;;;;;;;13.48;11.73;;;;;;;19.39;100.00;99149.56;5036441;28;20025;-65